Time;durP1;ratioP1;P1;durP2;ratioP2;P2;SDS_P1;SDS_P2;PMS_P1;PMS_P2;Temp;Humidity;BMP_temperature;BMP_pressure;BME280_temperature;BME280_humidity;BME280_pressure;Samples;Min_cycle;Max_cycle;Signal;HPM_P1;HPM_P2
2021/12/19 00:00:31;;;;;;;0.70;0.70;;;7.70;99.90;;;;;;4966663;28;20046;-74
2021/12/19 00:10:55;;;;;;;0.47;0.47;;;7.80;99.90;;;;;;4962851;28;20232;-74
2021/12/19 00:13:24;;;;;;;0.10;0.10;;;7.70;99.90;;;;;;4964904;28;20109;-74
2021/12/19 00:15:50;;;;;;;0.47;0.47;;;7.80;99.90;;;;;;4965197;28;20051;-74
2021/12/19 00:18:16;;;;;;;0.57;0.57;;;7.80;99.90;;;;;;4964704;28;20047;-74
2021/12/19 00:20:42;;;;;;;1.20;0.63;;;7.70;99.90;;;;;;4964176;28;20049;-74
2021/12/19 00:23:08;;;;;;;0.50;0.50;;;7.80;99.90;;;;;;4963895;28;20046;-74
2021/12/19 00:25:33;;;;;;;0.20;0.20;;;7.80;99.90;;;;;;4963028;28;20545;-74
2021/12/19 00:27:59;;;;;;;0.45;0.40;;;7.80;99.90;;;;;;4964130;28;20501;-74
2021/12/19 00:30:25;;;;;;;0.20;0.20;;;7.70;99.90;;;;;;4980695;28;20035;-74
2021/12/19 00:32:50;;;;;;;0.30;0.30;;;7.70;99.90;;;;;;4981959;28;20078;-75
2021/12/19 00:35:17;;;;;;;0.10;0.10;;;7.70;99.90;;;;;;4983371;28;20042;-74
2021/12/19 00:37:42;;;;;;;1.08;0.57;;;7.70;99.90;;;;;;4982586;28;20042;-74
2021/12/19 00:40:09;;;;;;;0.77;0.60;;;7.70;99.90;;;;;;4983247;28;20049;-74
2021/12/19 00:42:36;;;;;;;0.15;0.15;;;7.70;99.90;;;;;;4983424;28;20051;-74
2021/12/19 00:45:16;;;;;;;0.50;0.50;;;7.70;99.90;;;;;;4965737;28;20058;-74
2021/12/19 00:47:45;;;;;;;0.40;0.40;;;7.70;99.90;;;;;;4983325;28;20080;-74
2021/12/19 00:50:12;;;;;;;0.30;0.30;;;7.70;99.90;;;;;;4981505;28;20551;-74
2021/12/19 00:52:38;;;;;;;0.98;0.93;;;7.70;99.90;;;;;;4982775;28;20050;-74
2021/12/19 00:55:04;;;;;;;0.77;0.77;;;7.70;99.90;;;;;;4982945;28;20219;-74
2021/12/19 00:57:30;;;;;;;0.38;0.38;;;7.70;99.90;;;;;;4982805;28;20042;-74
2021/12/19 00:59:55;;;;;;;0.50;0.50;;;7.70;99.90;;;;;;4983037;28;20133;-74
2021/12/19 01:02:21;;;;;;;0.10;0.10;;;7.70;99.90;;;;;;4982468;28;20133;-75
2021/12/19 01:04:47;;;;;;;0.55;0.55;;;7.70;99.90;;;;;;4983970;28;20070;-74
2021/12/19 01:07:13;;;;;;;0.13;0.13;;;7.70;99.90;;;;;;4981996;28;20038;-75
2021/12/19 01:09:38;;;;;;;0.93;0.88;;;7.70;99.90;;;;;;4983103;28;20046;-74
2021/12/19 01:12:05;;;;;;;0.30;0.30;;;7.70;99.90;;;;;;4998507;28;20062;-74
2021/12/19 01:14:31;;;;;;;0.40;0.40;;;7.70;99.90;;;;;;5001925;28;20046;-74
2021/12/19 01:16:56;;;;;;;0.10;0.10;;;7.70;99.90;;;;;;5002240;28;20050;-74
2021/12/19 01:19:23;;;;;;;0.32;0.32;;;7.70;99.90;;;;;;5002335;28;20099;-74
2021/12/19 01:21:50;;;;;;;0.10;0.10;;;7.70;99.90;;;;;;5002753;28;20053;-74
2021/12/19 01:24:16;;;;;;;0.50;0.50;;;7.70;99.90;;;;;;5002246;28;20053;-74
2021/12/19 01:26:42;;;;;;;0.10;0.05;;;7.70;99.90;;;;;;5001885;28;20278;-74
2021/12/19 01:29:10;;;;;;;0.20;0.20;;;7.70;99.90;;;;;;4984187;28;20049;-74
2021/12/19 01:31:36;;;;;;;0.15;0.13;;;7.70;99.90;;;;;;4984656;28;20042;-74
2021/12/19 01:34:02;;;;;;;0.10;0.10;;;7.70;99.90;;;;;;5000364;28;20638;-74
2021/12/19 01:36:28;;;;;;;0.95;0.28;;;7.70;99.90;;;;;;4983873;28;20050;-74
2021/12/19 01:38:53;;;;;;;1.02;0.57;;;7.70;99.90;;;;;;5000736;28;20420;-74
2021/12/19 01:41:19;;;;;;;0.28;0.28;;;7.70;99.90;;;;;;4984932;28;20073;-74
2021/12/19 01:43:45;;;;;;;0.47;0.47;;;7.70;99.90;;;;;;5002156;28;20044;-74
2021/12/19 01:46:11;;;;;;;0.17;0.17;;;7.70;99.90;;;;;;5001445;28;20481;-74
2021/12/19 01:48:37;;;;;;;0.20;0.20;;;7.70;99.90;;;;;;5002260;28;20041;-74
2021/12/19 01:51:03;;;;;;;0.10;0.10;;;7.70;99.90;;;;;;5001331;28;20053;-74
2021/12/19 01:53:28;;;;;;;0.13;0.13;;;7.70;99.90;;;;;;4984010;28;20452;-74
2021/12/19 01:55:55;;;;;;;0.10;0.10;;;7.60;99.90;;;;;;4984082;28;20046;-74
2021/12/19 01:58:20;;;;;;;0.30;0.17;;;7.70;99.90;;;;;;5001809;28;20034;-74
2021/12/19 02:00:50;;;;;;;0.20;0.20;;;7.60;99.90;;;;;;5002200;28;20048;-74
2021/12/19 02:03:17;;;;;;;0.32;0.32;;;7.60;99.90;;;;;;5002144;28;20052;-74
2021/12/19 02:05:43;;;;;;;0.30;0.30;;;7.60;99.90;;;;;;5001631;28;20034;-74
2021/12/19 02:08:10;;;;;;;0.45;0.45;;;7.60;99.90;;;;;;4983011;28;20046;-74
2021/12/19 02:10:37;;;;;;;0.10;0.10;;;7.60;99.90;;;;;;4986023;28;20061;-74
2021/12/19 02:13:05;;;;;;;1.20;0.15;;;7.60;99.90;;;;;;4987758;28;20049;-74
2021/12/19 02:15:32;;;;;;;0.28;0.28;;;7.60;99.90;;;;;;5005734;28;20046;-74
2021/12/19 02:18:08;;;;;;;0.28;0.28;;;7.60;99.90;;;;;;5005684;28;20072;-74
2021/12/19 02:20:40;;;;;;;0.00;0.00;;;7.60;99.90;;;;;;5005432;28;20496;-74
2021/12/19 02:23:06;;;;;;;1.63;0.82;;;7.60;99.90;;;;;;5004997;28;20045;-74
2021/12/19 02:25:32;;;;;;;1.80;0.88;;;7.60;99.90;;;;;;5005325;28;20042;-74
2021/12/19 02:27:58;;;;;;;0.22;0.22;;;7.50;99.90;;;;;;5005047;28;20038;-74
2021/12/19 02:30:24;;;;;;;0.13;0.13;;;7.60;99.90;;;;;;4988885;28;20042;-74
2021/12/19 02:32:50;;;;;;;0.30;0.30;;;7.60;99.90;;;;;;4968691;28;20054;-74
2021/12/19 02:35:22;;;;;;;0.20;0.20;;;7.50;99.90;;;;;;4986109;28;20057;-74
2021/12/19 02:48:56;;;;;;;0.20;0.20;;;7.50;99.90;;;;;;4985107;28;20065;-75
2021/12/19 02:51:22;;;;;;;0.08;0.08;;;7.50;99.90;;;;;;4986027;28;20054;-74
2021/12/19 02:53:47;;;;;;;0.38;0.38;;;7.40;99.90;;;;;;4984726;28;20129;-74
2021/12/19 02:56:13;;;;;;;0.10;0.10;;;7.40;99.90;;;;;;4985313;28;20087;-74
2021/12/19 02:58:42;;;;;;;0.10;0.10;;;7.40;99.90;;;;;;4967871;28;20085;-74
2021/12/19 03:01:13;;;;;;;0.95;0.63;;;7.40;99.90;;;;;;4967257;28;20060;-74
2021/12/19 03:03:38;;;;;;;0.30;0.30;;;7.40;99.90;;;;;;4985406;28;20263;-74
2021/12/19 03:06:05;;;;;;;1.17;1.02;;;7.40;99.90;;;;;;4985254;28;20569;-74
2021/12/19 03:08:31;;;;;;;0.10;0.10;;;7.40;99.90;;;;;;4984471;28;20488;-74
2021/12/19 03:17:55;;;;;;;8.52;0.88;;;7.40;99.90;;;;;;4985400;28;20134;-74
2021/12/19 03:18:58;;;;;;;0.10;0.10;;;7.30;99.90;;;;;;4984491;28;20089;-74
2021/12/19 03:21:25;;;;;;;0.10;0.10;;;7.30;99.90;;;;;;4984849;28;20082;-74
2021/12/19 03:23:52;;;;;;;0.30;0.30;;;7.30;99.90;;;;;;4984250;28;20515;-75
2021/12/19 03:26:17;;;;;;;0.65;0.65;;;7.30;99.90;;;;;;4984457;28;20548;-74
2021/12/19 03:28:43;;;;;;;0.15;0.15;;;7.30;99.90;;;;;;4988151;28;20042;-74
2021/12/19 03:31:09;;;;;;;0.32;0.32;;;7.30;99.90;;;;;;5003398;28;20349;-74
2021/12/19 03:33:38;;;;;;;0.10;0.10;;;7.30;99.90;;;;;;5004307;28;20046;-74
2021/12/19 03:36:05;;;;;;;0.10;0.10;;;7.30;99.90;;;;;;5004450;28;20468;-74
2021/12/19 03:38:33;;;;;;;1.10;0.40;;;7.30;99.90;;;;;;5003250;28;20050;-74
2021/12/19 03:41:13;;;;;;;0.10;0.10;;;7.30;99.90;;;;;;5003959;28;20049;-74
2021/12/19 03:43:39;;;;;;;0.20;0.20;;;7.30;99.90;;;;;;5004348;28;20056;-74
2021/12/19 03:46:05;;;;;;;1.13;0.52;;;7.30;99.90;;;;;;5003636;28;20038;-74
2021/12/19 03:48:30;;;;;;;0.20;0.20;;;7.30;99.90;;;;;;5004182;28;20447;-74
2021/12/19 03:50:56;;;;;;;0.10;0.10;;;7.30;99.90;;;;;;5003522;28;20073;-74
2021/12/19 03:53:22;;;;;;;0.10;0.10;;;7.30;99.90;;;;;;5003352;28;20049;-74
2021/12/19 03:55:49;;;;;;;0.20;0.20;;;7.30;99.90;;;;;;5004401;28;20089;-74
2021/12/19 03:58:15;;;;;;;0.30;0.10;;;7.20;99.90;;;;;;4985752;28;20101;-74
2021/12/19 04:00:43;;;;;;;0.00;0.00;;;7.20;99.90;;;;;;5003867;28;20077;-73
2021/12/19 04:03:09;;;;;;;0.98;0.60;;;7.30;99.90;;;;;;5003581;28;20042;-74
2021/12/19 04:05:35;;;;;;;0.00;0.00;;;7.30;99.90;;;;;;4985663;28;20046;-74
2021/12/19 04:08:01;;;;;;;0.52;0.30;;;7.30;99.90;;;;;;5002871;28;20116;-74
2021/12/19 04:10:27;;;;;;;0.00;0.00;;;7.30;99.90;;;;;;5003543;28;20447;-74
2021/12/19 04:12:56;;;;;;;0.10;0.10;;;7.30;99.90;;;;;;5003360;28;20054;-74
2021/12/19 04:15:22;;;;;;;0.10;0.10;;;7.30;99.90;;;;;;5004018;28;20037;-74
2021/12/19 04:17:48;;;;;;;0.20;0.20;;;7.20;99.90;;;;;;5003518;28;20351;-73
2021/12/19 04:20:15;;;;;;;0.08;0.08;;;7.30;99.90;;;;;;4985953;28;20539;-74
2021/12/19 04:22:44;;;;;;;0.20;0.20;;;7.30;99.90;;;;;;4985005;28;20496;-74
2021/12/19 04:25:11;;;;;;;0.40;0.40;;;7.20;99.90;;;;;;4985441;28;20054;-74
2021/12/19 04:27:37;;;;;;;2.72;0.20;;;7.30;99.90;;;;;;4985721;28;20081;-74
2021/12/19 04:30:05;;;;;;;0.25;0.25;;;7.30;99.90;;;;;;4988804;28;20042;-74
2021/12/19 04:32:36;;;;;;;0.52;0.52;;;7.30;99.90;;;;;;4982948;28;20046;-74
2021/12/19 04:35:01;;;;;;;0.25;0.10;;;7.30;99.90;;;;;;4982860;28;20042;-74
2021/12/19 04:40:50;;;;;;;1.33;1.25;;;7.30;99.90;;;;;;4966030;28;20054;-74
2021/12/19 04:51:01;;;;;;;0.52;0.52;;;7.30;99.90;;;;;;4965477;28;20173;-74
2021/12/19 04:51:14;;;;;;;0.38;0.30;;;7.30;99.90;;;;;;4983237;28;20069;-74
2021/12/19 04:56:51;;;;;;;0.10;0.10;;;7.40;99.90;;;;;;4933889;28;20065;-74
2021/12/19 05:15:31;;;;;;;5.43;1.48;;;7.40;99.90;;;;;;4965423;28;20039;-74
2021/12/19 05:18:01;;;;;;;0.70;0.70;;;7.40;99.90;;;;;;4964919;28;20058;-74
2021/12/19 05:20:28;;;;;;;1.23;1.23;;;7.40;99.90;;;;;;4983490;28;20057;-74
2021/12/19 05:23:00;;;;;;;1.63;1.52;;;7.50;99.90;;;;;;4981445;28;20042;-74
2021/12/19 05:25:26;;;;;;;0.80;0.45;;;7.40;99.90;;;;;;4983166;28;20046;-74
2021/12/19 05:27:56;;;;;;;1.55;1.45;;;7.50;99.90;;;;;;4964687;28;20077;-75
2021/12/19 05:30:23;;;;;;;1.25;1.15;;;7.50;99.90;;;;;;4965417;28;20038;-74
2021/12/19 05:32:51;;;;;;;1.63;1.13;;;7.40;99.90;;;;;;5001900;28;20045;-74
2021/12/19 05:35:24;;;;;;;3.75;2.50;;;7.50;99.90;;;;;;4984488;28;20107;-74
2021/12/19 05:46:03;;;;;;;2.30;1.73;;;7.50;99.90;;;;;;5000973;28;20081;-73
2021/12/19 05:48:29;;;;;;;2.28;2.05;;;7.50;99.90;;;;;;5001773;28;20073;-74
2021/12/19 05:50:54;;;;;;;1.58;1.48;;;7.50;99.90;;;;;;4982082;28;20542;-74
2021/12/19 05:53:20;;;;;;;2.40;1.80;;;7.50;99.90;;;;;;4998404;28;20497;-74
2021/12/19 05:55:45;;;;;;;1.48;1.38;;;7.50;99.90;;;;;;5000450;28;20136;-74
2021/12/19 05:58:11;;;;;;;1.13;1.13;;;7.50;99.90;;;;;;4998620;28;20038;-73
2021/12/19 06:00:38;;;;;;;5.50;2.42;;;7.50;99.90;;;;;;5000242;28;20046;-74
2021/12/19 06:03:04;;;;;;;1.27;1.05;;;7.50;99.90;;;;;;4981890;28;20038;-73
2021/12/19 06:05:29;;;;;;;1.58;1.48;;;7.50;99.90;;;;;;4981211;28;20233;-74
2021/12/19 06:07:55;;;;;;;1.48;0.98;;;7.50;99.90;;;;;;4982444;28;20046;-74
2021/12/19 06:10:22;;;;;;;0.55;0.55;;;7.50;99.90;;;;;;5000462;28;20049;-75
2021/12/19 06:12:48;;;;;;;1.88;1.23;;;7.50;99.90;;;;;;5000461;28;20362;-74
2021/12/19 06:15:14;;;;;;;2.05;0.93;;;7.50;99.90;;;;;;5000766;28;20504;-74
2021/12/19 06:17:44;;;;;;;0.35;0.35;;;7.50;99.90;;;;;;5000079;28;20224;-74
2021/12/19 06:20:10;;;;;;;6.03;1.33;;;7.50;99.90;;;;;;4999848;28;20437;-74
2021/12/19 06:22:37;;;;;;;6.25;1.58;;;7.50;99.90;;;;;;4999523;28;20041;-74
2021/12/19 06:25:04;;;;;;;0.30;0.30;;;7.50;99.90;;;;;;5000751;28;20132;-74
2021/12/19 06:27:29;;;;;;;0.52;0.52;;;7.50;99.90;;;;;;5000160;28;20069;-74
2021/12/19 06:29:55;;;;;;;2.90;1.02;;;7.50;99.90;;;;;;4988670;28;20051;-74
2021/12/19 06:32:20;;;;;;;4.65;1.13;;;7.50;99.90;;;;;;4964676;28;20708;-74
2021/12/19 06:34:46;;;;;;;1.02;0.95;;;7.50;99.90;;;;;;4981182;28;20109;-74
2021/12/19 06:37:12;;;;;;;0.50;0.50;;;7.50;99.90;;;;;;4979326;28;20535;-74
2021/12/19 06:39:38;;;;;;;0.85;0.85;;;7.50;99.90;;;;;;4980202;28;20098;-74
2021/12/19 06:42:06;;;;;;;14.80;0.98;;;7.50;99.90;;;;;;4963307;28;20045;-74
2021/12/19 06:44:32;;;;;;;1.17;0.98;;;7.50;99.90;;;;;;4963646;28;20051;-74
2021/12/19 06:46:59;;;;;;;2.03;1.33;;;7.50;99.90;;;;;;4980314;28;20137;-74
2021/12/19 06:49:24;;;;;;;1.08;1.08;;;7.50;99.90;;;;;;4981120;28;20041;-74
2021/12/19 06:51:50;;;;;;;4.85;1.85;;;7.50;99.90;;;;;;4962583;28;20534;-74
2021/12/19 06:54:15;;;;;;;9.40;2.08;;;7.50;99.90;;;;;;4980918;28;20593;-74
2021/12/19 06:56:41;;;;;;;1.10;0.60;;;7.50;99.90;;;;;;4965323;28;20088;-74
2021/12/19 06:59:06;;;;;;;0.57;0.57;;;7.50;99.90;;;;;;4983786;28;20111;-74
2021/12/19 07:01:32;;;;;;;5.93;0.93;;;7.50;99.90;;;;;;4985024;28;20042;-74
2021/12/19 07:03:58;;;;;;;0.57;0.57;;;7.50;99.90;;;;;;4983612;28;20050;-74
2021/12/19 07:06:24;;;;;;;0.45;0.45;;;7.50;99.90;;;;;;4983397;28;20088;-74
2021/12/19 07:08:49;;;;;;;0.55;0.55;;;7.50;99.90;;;;;;4984846;28;20092;-74
2021/12/19 07:11:15;;;;;;;0.45;0.45;;;7.50;99.90;;;;;;4983002;28;20049;-74
2021/12/19 07:13:41;;;;;;;3.55;0.95;;;7.50;99.90;;;;;;4967183;28;20403;-74
2021/12/19 07:16:07;;;;;;;0.17;0.17;;;7.50;99.90;;;;;;4983838;28;20038;-74
2021/12/19 07:18:33;;;;;;;0.25;0.25;;;7.40;99.90;;;;;;4983923;28;20347;-74
2021/12/19 07:20:58;;;;;;;2.55;0.47;;;7.40;99.90;;;;;;4984063;28;20497;-74
2021/12/19 07:23:24;;;;;;;0.20;0.20;;;7.40;99.90;;;;;;4982613;28;20042;-74
2021/12/19 07:25:50;;;;;;;1.48;0.75;;;7.40;99.90;;;;;;4984749;28;20501;-74
2021/12/19 07:28:16;;;;;;;2.67;0.47;;;7.40;99.90;;;;;;4983751;28;20117;-74
2021/12/19 07:30:42;;;;;;;2.92;0.75;;;7.40;99.90;;;;;;4984940;28;20366;-74
2021/12/19 07:33:10;;;;;;;0.38;0.35;;;7.40;99.90;;;;;;5003423;28;20581;-74
2021/12/19 07:35:38;;;;;;;0.65;0.47;;;7.40;99.90;;;;;;4985503;28;20041;-74
2021/12/19 07:38:09;;;;;;;0.60;0.60;;;7.40;99.90;;;;;;5001731;28;20042;-74
2021/12/19 07:40:36;;;;;;;1.40;0.35;;;7.40;99.90;;;;;;5003453;28;20042;-74
2021/12/19 07:43:04;;;;;;;1.23;0.90;;;7.40;99.90;;;;;;5003905;28;20041;-74
2021/12/19 07:45:31;;;;;;;4.93;1.13;;;7.40;99.90;;;;;;5002635;28;20070;-74
2021/12/19 07:47:57;;;;;;;1.90;1.35;;;7.40;99.90;;;;;;4985401;28;20401;-74
2021/12/19 07:50:24;;;;;;;0.52;0.40;;;7.40;99.90;;;;;;5004288;28;20038;-74
2021/12/19 07:52:49;;;;;;;3.90;0.98;;;7.40;99.90;;;;;;5003161;28;20040;-74
2021/12/19 07:55:15;;;;;;;3.30;0.88;;;7.40;99.90;;;;;;5003807;28;20054;-74
2021/12/19 07:57:41;;;;;;;7.32;1.23;;;7.50;99.90;;;;;;5003331;28;20077;-74
2021/12/19 08:00:09;;;;;;;2.45;1.00;;;7.50;99.90;;;;;;5003317;28;20123;-74
2021/12/19 08:02:34;;;;;;;1.27;1.17;;;7.50;99.90;;;;;;5003802;28;20034;-74
2021/12/19 08:05:00;;;;;;;1.17;0.65;;;7.50;99.90;;;;;;5003603;28;20464;-74
2021/12/19 08:07:26;;;;;;;1.50;0.70;;;7.50;99.90;;;;;;5001893;28;20049;-74
2021/12/19 08:10:13;;;;;;;2.30;0.80;;;7.50;99.90;;;;;;4985251;28;20064;-75
2021/12/19 08:12:37;;;;;;;2.92;1.50;;;7.50;99.90;;;;;;4985424;28;20520;-74
2021/12/19 08:15:07;;;;;;;0.65;0.65;;;7.50;99.90;;;;;;4985600;28;20136;-74
2021/12/19 08:17:34;;;;;;;0.20;0.20;;;7.50;99.90;;;;;;5003727;28;20038;-74
2021/12/19 08:20:01;;;;;;;1.60;0.80;;;7.50;99.90;;;;;;5002363;28;20046;-74
2021/12/19 08:22:28;;;;;;;1.73;0.80;;;7.50;99.90;;;;;;5002169;28;20323;-74
2021/12/19 08:24:54;;;;;;;1.00;0.45;;;7.60;99.90;;;;;;5003482;28;20042;-74
2021/12/19 08:27:19;;;;;;;1.08;0.52;;;7.60;99.90;;;;;;5000957;28;20049;-77
2021/12/19 08:29:46;;;;;;;0.68;0.68;;;7.60;99.90;;;;;;4962990;28;20385;-78
2021/12/19 08:32:12;;;;;;;0.68;0.68;;;7.60;99.90;;;;;;4988043;28;20053;-75
2021/12/19 08:34:38;;;;;;;0.30;0.30;;;7.60;99.90;;;;;;4987073;28;20043;-75
2021/12/19 08:37:04;;;;;;;4.50;0.77;;;7.60;99.90;;;;;;4983208;28;20050;-75
2021/12/19 08:39:32;;;;;;;0.30;0.20;;;7.60;99.90;;;;;;4990303;28;20038;-78
2021/12/19 08:41:58;;;;;;;0.82;0.82;;;7.60;99.90;;;;;;4985784;28;20072;-76
2021/12/19 08:44:24;;;;;;;4.03;0.75;;;7.60;99.90;;;;;;4986743;28;20046;-75
2021/12/19 08:46:50;;;;;;;2.15;0.93;;;7.60;99.90;;;;;;4994050;28;20046;-75
2021/12/19 08:49:16;;;;;;;0.68;0.68;;;7.60;99.90;;;;;;5003166;28;20117;-75
2021/12/19 08:51:41;;;;;;;1.40;0.95;;;7.60;99.90;;;;;;4984715;28;20475;-76
2021/12/19 08:54:08;;;;;;;0.50;0.38;;;7.60;99.90;;;;;;4993526;28;20107;-75
2021/12/19 08:56:34;;;;;;;3.03;1.48;;;7.60;99.90;;;;;;4974750;28;20037;-73
2021/12/19 08:59:00;;;;;;;0.80;0.75;;;7.60;99.90;;;;;;4973396;28;20547;-74
2021/12/19 09:01:28;;;;;;;0.45;0.45;;;7.70;99.90;;;;;;4987792;28;20034;-76
2021/12/19 09:03:54;;;;;;;1.10;1.10;;;7.60;99.90;;;;;;4991627;28;20045;-75
2021/12/19 09:06:19;;;;;;;1.00;0.73;;;7.60;99.90;;;;;;4992552;28;20034;-74
2021/12/19 09:08:45;;;;;;;0.10;0.10;;;7.60;99.90;;;;;;4990516;28;20050;-75
2021/12/19 09:11:11;;;;;;;0.20;0.20;;;7.60;99.90;;;;;;4992460;28;20144;-75
2021/12/19 09:13:37;;;;;;;7.03;1.25;;;7.70;99.90;;;;;;4975853;28;20080;-74
2021/12/19 09:16:02;;;;;;;1.90;1.75;;;7.70;99.90;;;;;;4988487;28;20386;-77
2021/12/19 09:18:28;;;;;;;2.03;1.27;;;7.70;99.90;;;;;;4973718;28;20041;-75
2021/12/19 09:20:55;;;;;;;0.20;0.20;;;7.70;99.90;;;;;;4991676;28;20050;-74
2021/12/19 09:23:21;;;;;;;0.88;0.88;;;7.70;99.90;;;;;;4989204;28;20089;-75
2021/12/19 09:25:48;;;;;;;2.47;0.82;;;7.70;99.90;;;;;;4983258;28;20052;-76
2021/12/19 09:28:13;;;;;;;1.23;1.13;;;7.70;99.90;;;;;;4965651;28;20050;-76
2021/12/19 09:30:41;;;;;;;1.75;1.00;;;7.70;99.90;;;;;;4983381;28;20461;-75
2021/12/19 09:33:06;;;;;;;0.52;0.52;;;7.70;99.90;;;;;;4985013;28;20054;-75
2021/12/19 09:35:32;;;;;;;1.67;1.10;;;7.70;99.90;;;;;;4993367;28;20531;-75
2021/12/19 09:37:57;;;;;;;0.75;0.73;;;7.70;99.90;;;;;;4986833;28;20034;-74
2021/12/19 09:40:32;;;;;;;0.52;0.52;;;7.70;99.90;;;;;;5001737;28;20045;-74
2021/12/19 09:43:03;;;;;;;0.98;0.98;;;7.70;99.90;;;;;;4984442;28;20076;-74
2021/12/19 09:45:30;;;;;;;1.42;0.73;;;7.70;99.90;;;;;;5001969;28;20121;-75
2021/12/19 09:47:56;;;;;;;0.88;0.70;;;7.70;99.90;;;;;;4989636;28;20096;-74
2021/12/19 09:50:22;;;;;;;0.57;0.57;;;7.70;99.90;;;;;;4982386;28;20089;-75
2021/12/19 09:52:50;;;;;;;0.45;0.43;;;7.70;99.90;;;;;;4966261;28;20126;-75
2021/12/19 09:55:18;;;;;;;2.40;1.00;;;7.70;99.90;;;;;;4975907;28;20129;-75
2021/12/19 09:57:45;;;;;;;1.02;0.98;;;7.70;99.90;;;;;;4963005;28;20046;-79
2021/12/19 10:00:12;;;;;;;0.57;0.57;;;7.70;99.90;;;;;;4977513;28;20508;-77
2021/12/19 10:02:37;;;;;;;0.15;0.15;;;7.80;99.90;;;;;;4984012;28;20064;-83
2021/12/19 10:05:24;;;;;;;2.75;1.20;;;7.80;99.90;;;;;;4993102;28;20496;-77
2021/12/19 10:07:55;;;;;;;0.40;0.35;;;7.80;99.90;;;;;;4965564;28;20085;-77
2021/12/19 10:10:45;;;;;;;0.93;0.90;;;7.80;99.90;;;;;;4985090;28;20116;-77
2021/12/19 10:13:12;;;;;;;0.65;0.65;;;7.80;99.90;;;;;;4961737;28;20041;-81
2021/12/19 10:15:42;;;;;;;0.50;0.43;;;7.80;99.90;;;;;;4959747;28;20043;-79
2021/12/19 10:18:13;;;;;;;0.68;0.68;;;7.80;99.90;;;;;;4961165;28;20449;-78
2021/12/19 10:21:00;;;;;;;1.25;1.17;;;7.80;99.90;;;;;;4946323;28;20081;-77
2021/12/19 10:23:32;;;;;;;1.33;1.23;;;7.80;99.90;;;;;;4955012;28;20046;-76
2021/12/19 10:26:06;;;;;;;0.30;0.30;;;7.80;99.90;;;;;;4968386;28;20051;-77
2021/12/19 10:28:33;;;;;;;4.22;0.75;;;7.80;99.90;;;;;;4960625;28;20043;-78
2021/12/19 10:31:03;;;;;;;11.93;2.22;;;7.80;99.90;;;;;;4962010;28;20493;-78
2021/12/19 10:33:32;;;;;;;0.52;0.52;;;7.90;99.90;;;;;;4954741;28;20047;-78
2021/12/19 10:36:06;;;;;;;0.75;0.73;;;7.90;99.90;;;;;;4962602;28;20043;-78
2021/12/19 10:38:42;;;;;;;1.42;1.33;;;7.80;99.90;;;;;;4964711;28;20050;-77
2021/12/19 10:41:15;;;;;;;1.17;0.95;;;7.90;99.90;;;;;;4964991;28;20050;-78
2021/12/19 10:43:56;;;;;;;0.77;0.77;;;7.90;99.90;;;;;;4964792;28;20054;-77
2021/12/19 10:46:27;;;;;;;0.45;0.45;;;7.90;99.90;;;;;;4962614;28;20073;-79
2021/12/19 10:48:53;;;;;;;11.48;2.00;;;7.90;99.90;;;;;;4958675;28;20043;-76
2021/12/19 10:51:20;;;;;;;1.00;0.55;;;7.90;99.90;;;;;;4962640;28;20126;-74
2021/12/19 10:53:54;;;;;;;0.90;0.90;;;7.90;99.90;;;;;;4960823;28;20658;-74
2021/12/19 10:56:25;;;;;;;1.45;0.90;;;7.90;99.90;;;;;;4948213;28;20043;-78
2021/12/19 10:58:57;;;;;;;1.00;0.70;;;7.90;99.90;;;;;;4960403;28;20055;-78
2021/12/19 11:01:34;;;;;;;1.90;1.30;;;7.90;99.90;;;;;;4951832;28;20047;-82
2021/12/19 11:04:09;;;;;;;2.28;1.13;;;7.90;99.90;;;;;;4953299;28;20057;-80
2021/12/19 11:06:41;;;;;;;2.50;1.15;;;7.90;99.90;;;;;;4945717;28;20106;-79
2021/12/19 11:09:08;;;;;;;1.48;1.38;;;7.90;99.90;;;;;;4965355;28;20055;-79
2021/12/19 11:11:48;;;;;;;0.90;0.85;;;7.90;99.90;;;;;;4971595;28;20054;-79
2021/12/19 11:14:33;;;;;;;3.20;1.40;;;7.90;99.90;;;;;;4977816;28;20046;-79
2021/12/19 11:17:01;;;;;;;0.75;0.57;;;7.90;99.90;;;;;;4967120;28;20054;-80
2021/12/19 11:19:27;;;;;;;1.15;0.90;;;7.90;99.90;;;;;;4972606;28;20042;-79
2021/12/19 11:21:53;;;;;;;2.03;0.85;;;7.90;99.90;;;;;;4971075;28;20440;-79
2021/12/19 11:24:23;;;;;;;0.80;0.35;;;7.90;99.90;;;;;;4965088;28;20290;-78
2021/12/19 11:26:55;;;;;;;0.95;0.95;;;7.90;99.90;;;;;;4985310;28;20122;-77
2021/12/19 11:29:21;;;;;;;1.00;0.95;;;7.90;99.90;;;;;;4968080;28;20058;-79
2021/12/19 11:31:52;;;;;;;10.05;1.05;;;7.90;99.90;;;;;;4995425;28;20070;-80
2021/12/19 11:34:22;;;;;;;0.98;0.57;;;7.90;99.90;;;;;;4984393;28;20050;-78
2021/12/19 11:37:06;;;;;;;0.50;0.50;;;7.90;99.90;;;;;;4973586;28;20481;-84
2021/12/19 11:39:39;;;;;;;0.70;0.70;;;7.90;99.90;;;;;;4984596;28;20054;-81
2021/12/19 11:42:13;;;;;;;1.67;1.38;;;7.90;99.90;;;;;;4982132;28;20108;-79
2021/12/19 11:45:14;;;;;;;2.53;0.65;;;7.90;99.90;;;;;;4984017;28;20524;-79
2021/12/19 11:47:48;;;;;;;4.35;1.30;;;7.90;99.90;;;;;;4983565;28;20501;-82
2021/12/19 11:50:22;;;;;;;2.25;1.60;;;7.90;99.90;;;;;;4971665;28;20074;-82
2021/12/19 11:52:50;;;;;;;0.57;0.57;;;7.90;99.90;;;;;;4971224;28;20515;-80
2021/12/19 11:55:19;;;;;;;1.20;1.15;;;7.90;99.90;;;;;;4967701;28;20054;-78
2021/12/19 11:58:13;;;;;;;1.08;0.82;;;7.90;99.90;;;;;;4972676;28;20050;-77
2021/12/19 12:01:05;;;;;;;0.68;0.63;;;7.90;99.90;;;;;;4981117;28;20417;-78
2021/12/19 12:03:33;;;;;;;0.45;0.45;;;8.00;99.90;;;;;;4962494;28;20584;-79
2021/12/19 12:05:59;;;;;;;7.22;1.10;;;8.00;99.90;;;;;;4963133;28;20042;-80
2021/12/19 12:08:29;;;;;;;0.73;0.73;;;8.00;99.90;;;;;;4964187;28;20409;-78
2021/12/19 12:10:56;;;;;;;2.13;0.88;;;8.00;99.90;;;;;;4980543;28;20133;-79
2021/12/19 12:13:33;;;;;;;0.40;0.40;;;8.00;99.90;;;;;;4977313;28;20054;-77
2021/12/19 12:16:25;;;;;;;0.50;0.32;;;8.00;99.90;;;;;;4983607;28;20042;-78
2021/12/19 12:18:55;;;;;;;3.83;1.17;;;8.00;99.90;;;;;;5002535;28;20448;-79
2021/12/19 12:21:22;;;;;;;4.97;1.00;;;8.00;99.90;;;;;;5001022;28;20038;-81
2021/12/19 12:23:52;;;;;;;0.52;0.25;;;8.00;99.90;;;;;;5002583;28;20045;-78
2021/12/19 12:26:37;;;;;;;1.73;1.25;;;8.00;99.90;;;;;;4984620;28;20055;-79
2021/12/19 12:29:04;;;;;;;0.10;0.10;;;8.00;99.90;;;;;;4982301;28;20119;-78
2021/12/19 12:31:30;;;;;;;1.20;0.55;;;8.10;99.90;;;;;;5002817;28;20104;-80
2021/12/19 12:33:56;;;;;;;1.00;0.68;;;8.10;99.90;;;;;;5003084;28;20077;-79
2021/12/19 12:36:22;;;;;;;1.08;1.08;;;8.10;99.90;;;;;;4984350;28;20050;-80
2021/12/19 12:38:51;;;;;;;15.95;2.13;;;8.10;99.90;;;;;;4991558;28;20046;-79
2021/12/19 12:41:35;;;;;;;1.73;1.15;;;8.10;99.90;;;;;;4978364;28;20053;-81
2021/12/19 12:44:06;;;;;;;1.13;0.90;;;8.10;99.90;;;;;;4999512;28;20092;-81
2021/12/19 12:46:32;;;;;;;8.82;1.35;;;8.10;99.90;;;;;;4975066;28;20437;-81
2021/12/19 12:49:02;;;;;;;2.53;1.55;;;8.10;99.90;;;;;;4973823;28;20099;-79
2021/12/19 12:51:41;;;;;;;0.28;0.28;;;8.10;99.90;;;;;;4959838;28;20042;-74
2021/12/19 12:54:15;;;;;;;1.27;1.17;;;8.20;99.90;;;;;;4983037;28;20085;-77
2021/12/19 12:56:47;;;;;;;0.40;0.40;;;8.10;99.90;;;;;;4997573;28;20481;-74
2021/12/19 12:59:15;;;;;;;3.03;1.25;;;8.20;99.90;;;;;;4986496;28;20124;-73
2021/12/19 13:01:47;;;;;;;9.82;1.10;;;8.20;99.90;;;;;;4948968;28;20336;-73
2021/12/19 13:04:15;;;;;;;0.30;0.28;;;8.20;99.90;;;;;;4981328;28;20057;-73
2021/12/19 13:06:44;;;;;;;9.85;1.15;;;8.20;99.90;;;;;;4981593;28;20054;-73
2021/12/19 13:09:21;;;;;;;1.55;0.80;;;8.20;99.90;;;;;;4981980;28;20038;-73
2021/12/19 13:11:49;;;;;;;1.27;1.17;;;8.20;99.90;;;;;;4982299;28;20057;-73
2021/12/19 13:14:23;;;;;;;8.98;1.30;;;8.20;99.90;;;;;;4965094;28;20058;-73
2021/12/19 13:16:57;;;;;;;1.30;1.05;;;8.20;99.90;;;;;;4965182;28;20082;-73
2021/12/19 13:19:47;;;;;;;0.55;0.55;;;8.20;99.90;;;;;;4948498;28;20047;-73
2021/12/19 13:22:34;;;;;;;15.55;0.98;;;8.20;99.90;;;;;;4948575;28;20046;-73
2021/12/19 13:25:06;;;;;;;0.80;0.52;;;8.20;99.90;;;;;;4964051;28;20042;-73
2021/12/19 13:27:34;;;;;;;1.65;1.52;;;8.20;99.90;;;;;;4981956;28;20117;-73
2021/12/19 13:30:08;;;;;;;0.38;0.38;;;8.20;99.90;;;;;;4996055;28;20042;-73
2021/12/19 13:33:04;;;;;;;6.40;1.30;;;8.20;99.90;;;;;;5001094;28;20038;-73
2021/12/19 13:35:37;;;;;;;1.77;1.17;;;8.20;99.90;;;;;;4980601;28;20068;-73
2021/12/19 13:38:32;;;;;;;2.30;1.25;;;8.20;99.90;;;;;;4971952;28;20046;-73
2021/12/19 13:41:00;;;;;;;16.42;1.02;;;8.20;99.90;;;;;;4979652;28;20050;-74
2021/12/19 13:43:32;;;;;;;0.40;0.40;;;8.20;99.90;;;;;;4982600;28;20046;-73
2021/12/19 13:46:05;;;;;;;1.65;1.40;;;8.20;99.90;;;;;;4982199;28;20113;-74
2021/12/19 13:48:37;;;;;;;28.02;2.05;;;8.20;99.90;;;;;;4982457;28;20112;-73
2021/12/19 13:51:24;;;;;;;1.45;1.35;;;8.20;99.90;;;;;;4981532;28;20138;-74
2021/12/19 13:53:53;;;;;;;1.50;1.40;;;8.20;99.90;;;;;;4970121;28;20058;-79
2021/12/19 13:56:26;;;;;;;3.55;1.95;;;8.20;99.90;;;;;;4984199;28;20056;-80
2021/12/19 13:59:00;;;;;;;1.58;0.50;;;8.20;99.90;;;;;;4982766;28;20417;-80
2021/12/19 14:01:28;;;;;;;0.60;0.50;;;8.20;99.90;;;;;;4983422;28;20397;-79
2021/12/19 14:03:58;;;;;;;11.25;1.80;;;8.20;99.90;;;;;;5000020;28;20354;-75
2021/12/19 14:06:37;;;;;;;0.30;0.30;;;8.20;99.90;;;;;;4999479;28;20046;-75